sensor_id;sensor_type;location;lat;lon;timestamp;pressure;altitude;pressure_sealevel;temperature;humidity
24302;BME280;12421;49.732;20.078;2023-12-20T00:08:40;96332.33;;;6.47;53.63
24302;BME280;12421;49.732;20.078;2023-12-20T00:18:43;96324.97;;;6.55;53.99
24302;BME280;12421;49.732;20.078;2023-12-20T00:28:46;96314.70;;;6.50;54.15
24302;BME280;12421;49.732;20.078;2023-12-20T00:38:50;96294.17;;;6.42;53.53
24302;BME280;12421;49.732;20.078;2023-12-20T00:48:55;96272.06;;;6.34;54.41
24302;BME280;12421;49.732;20.078;2023-12-20T00:58:59;96280.17;;;6.16;54.64
24302;BME280;12421;49.732;20.078;2023-12-20T01:09:02;96280.20;;;6.08;54.31
24302;BME280;12421;49.732;20.078;2023-12-20T01:19:05;96260.23;;;5.94;55.16
24302;BME280;12421;49.732;20.078;2023-12-20T01:29:10;96250.84;;;5.78;55.05
24302;BME280;12421;49.732;20.078;2023-12-20T01:39:13;96239.19;;;5.72;54.73
24302;BME280;12421;49.732;20.078;2023-12-20T01:49:30;96220.27;;;5.57;54.41
24302;BME280;12421;49.732;20.078;2023-12-20T01:59:34;96197.30;;;5.53;54.16
24302;BME280;12421;49.732;20.078;2023-12-20T02:09:38;96174.04;;;5.34;54.58
24302;BME280;12421;49.732;20.078;2023-12-20T02:19:41;96163.83;;;5.11;54.83
24302;BME280;12421;49.732;20.078;2023-12-20T02:29:46;96159.85;;;4.96;54.02
24302;BME280;12421;49.732;20.078;2023-12-20T02:39:50;96145.55;;;5.18;53.54
24302;BME280;12421;49.732;20.078;2023-12-20T02:49:54;96139.83;;;5.13;54.07
24302;BME280;12421;49.732;20.078;2023-12-20T02:59:57;96131.68;;;4.94;54.82
24302;BME280;12421;49.732;20.078;2023-12-20T03:10:00;96133.66;;;4.65;55.36
24302;BME280;12421;49.732;20.078;2023-12-20T03:20:22;96124.45;;;4.46;55.06
24302;BME280;12421;49.732;20.078;2023-12-20T03:30:25;96129.14;;;4.32;55.52
24302;BME280;12421;49.732;20.078;2023-12-20T03:40:28;96141.63;;;4.10;55.71
24302;BME280;12421;49.732;20.078;2023-12-20T03:50:32;96142.64;;;3.92;56.07
24302;BME280;12421;49.732;20.078;2023-12-20T04:00:35;96156.69;;;3.89;56.09
24302;BME280;12421;49.732;20.078;2023-12-20T04:10:39;96156.38;;;4.02;57.18
24302;BME280;12421;49.732;20.078;2023-12-20T04:20:42;96148.58;;;4.12;58.12
24302;BME280;12421;49.732;20.078;2023-12-20T04:30:45;96131.56;;;4.30;58.46
24302;BME280;12421;49.732;20.078;2023-12-20T04:40:49;96119.58;;;4.56;59.56
24302;BME280;12421;49.732;20.078;2023-12-20T04:50:52;96113.27;;;4.83;59.68
24302;BME280;12421;49.732;20.078;2023-12-20T05:00:55;96114.22;;;5.20;59.25
24302;BME280;12421;49.732;20.078;2023-12-20T05:10:59;96116.34;;;5.57;58.50
24302;BME280;12421;49.732;20.078;2023-12-20T05:21:03;96111.52;;;5.82;58.64
24302;BME280;12421;49.732;20.078;2023-12-20T05:31:06;96104.48;;;5.96;58.54
24302;BME280;12421;49.732;20.078;2023-12-20T05:41:10;96091.90;;;6.02;58.84
24302;BME280;12421;49.732;20.078;2023-12-20T05:51:13;96082.99;;;6.04;59.54
24302;BME280;12421;49.732;20.078;2023-12-20T06:01:17;96075.85;;;6.06;60.13
24302;BME280;12421;49.732;20.078;2023-12-20T06:11:20;96063.46;;;6.08;60.95
24302;BME280;12421;49.732;20.078;2023-12-20T06:21:23;96065.58;;;6.07;63.20
24302;BME280;12421;49.732;20.078;2023-12-20T06:31:27;96056.31;;;6.10;65.17
24302;BME280;12421;49.732;20.078;2023-12-20T06:41:31;96056.45;;;6.12;65.88
24302;BME280;12421;49.732;20.078;2023-12-20T06:51:34;96066.95;;;6.08;66.17
24302;BME280;12421;49.732;20.078;2023-12-20T07:01:37;96062.27;;;6.03;67.17
24302;BME280;12421;49.732;20.078;2023-12-20T07:11:41;96068.20;;;6.05;68.07
24302;BME280;12421;49.732;20.078;2023-12-20T07:21:44;96062.77;;;6.08;69.81
24302;BME280;12421;49.732;20.078;2023-12-20T07:31:48;96057.65;;;6.15;69.22
24302;BME280;12421;49.732;20.078;2023-12-20T07:41:52;96060.89;;;6.24;69.28
24302;BME280;12421;49.732;20.078;2023-12-20T07:51:55;96069.89;;;6.32;69.60
24302;BME280;12421;49.732;20.078;2023-12-20T08:01:59;96079.31;;;6.31;69.05
24302;BME280;12421;49.732;20.078;2023-12-20T08:12:03;96089.76;;;6.32;68.76
24302;BME280;12421;49.732;20.078;2023-12-20T08:22:07;96101.58;;;6.37;68.91
24302;BME280;12421;49.732;20.078;2023-12-20T08:32:10;96112.61;;;6.28;69.24
24302;BME280;12421;49.732;20.078;2023-12-20T08:42:14;96126.67;;;6.13;70.46
24302;BME280;12421;49.732;20.078;2023-12-20T08:52:17;96119.21;;;6.08;71.44
24302;BME280;12421;49.732;20.078;2023-12-20T09:02:21;96121.98;;;6.08;71.99
24302;BME280;12421;49.732;20.078;2023-12-20T09:12:25;96114.33;;;6.10;72.12
24302;BME280;12421;49.732;20.078;2023-12-20T09:22:28;96120.90;;;5.88;72.92
24302;BME280;12421;49.732;20.078;2023-12-20T09:32:32;96105.42;;;5.86;73.35
24302;BME280;12421;49.732;20.078;2023-12-20T09:42:55;96104.00;;;5.91;73.32
24302;BME280;12421;49.732;20.078;2023-12-20T09:53:01;96098.45;;;5.84;72.71
24302;BME280;12421;49.732;20.078;2023-12-20T10:03:06;96097.93;;;5.84;72.79
24302;BME280;12421;49.732;20.078;2023-12-20T10:13:12;96090.36;;;5.96;72.72
24302;BME280;12421;49.732;20.078;2023-12-20T10:23:16;96088.08;;;6.00;73.02
24302;BME280;12421;49.732;20.078;2023-12-20T10:33:28;96084.98;;;5.94;73.31
24302;BME280;12421;49.732;20.078;2023-12-20T10:43:32;96093.40;;;5.87;73.77
24302;BME280;12421;49.732;20.078;2023-12-20T10:53:38;96077.90;;;5.83;73.97
24302;BME280;12421;49.732;20.078;2023-12-20T11:03:53;96078.03;;;5.93;74.04
24302;BME280;12421;49.732;20.078;2023-12-20T11:14:01;96078.59;;;5.85;73.94
24302;BME280;12421;49.732;20.078;2023-12-20T11:24:05;96077.80;;;5.67;74.04
24302;BME280;12421;49.732;20.078;2023-12-20T11:34:14;96068.48;;;5.54;74.35
24302;BME280;12421;49.732;20.078;2023-12-20T11:44:20;96067.13;;;5.48;74.98
24302;BME280;12421;49.732;20.078;2023-12-20T11:54:23;96071.52;;;5.39;75.55
24302;BME280;12421;49.732;20.078;2023-12-20T12:04:27;96071.38;;;5.32;75.95
24302;BME280;12421;49.732;20.078;2023-12-20T12:14:32;96066.01;;;5.27;76.28
24302;BME280;12421;49.732;20.078;2023-12-20T12:24:36;96069.67;;;5.21;76.73
24302;BME280;12421;49.732;20.078;2023-12-20T12:34:39;96060.78;;;5.27;77.14
24302;BME280;12421;49.732;20.078;2023-12-20T12:44:43;96055.16;;;5.37;77.04
24302;BME280;12421;49.732;20.078;2023-12-20T12:54:47;96047.64;;;5.44;76.70
24302;BME280;12421;49.732;20.078;2023-12-20T13:04:50;96054.25;;;5.46;76.40
24302;BME280;12421;49.732;20.078;2023-12-20T13:14:54;96069.75;;;5.43;76.37
24302;BME280;12421;49.732;20.078;2023-12-20T13:24:58;96065.09;;;5.33;76.36
24302;BME280;12421;49.732;20.078;2023-12-20T13:35:01;96077.51;;;5.21;76.91
24302;BME280;12421;49.732;20.078;2023-12-20T13:45:06;96083.46;;;5.12;77.28
24302;BME280;12421;49.732;20.078;2023-12-20T13:55:09;96106.76;;;5.11;77.57
24302;BME280;12421;49.732;20.078;2023-12-20T14:05:14;96114.44;;;5.08;77.35
24302;BME280;12421;49.732;20.078;2023-12-20T14:15:21;96107.52;;;4.97;76.88
24302;BME280;12421;49.732;20.078;2023-12-20T14:25:27;96088.59;;;4.81;76.62
24302;BME280;12421;49.732;20.078;2023-12-20T14:35:35;96085.14;;;4.66;76.71
24302;BME280;12421;49.732;20.078;2023-12-20T14:45:38;96091.58;;;4.62;76.66
24302;BME280;12421;49.732;20.078;2023-12-20T14:55:42;96099.75;;;4.59;76.36
24302;BME280;12421;49.732;20.078;2023-12-20T15:05:45;96100.80;;;4.58;76.44
24302;BME280;12421;49.732;20.078;2023-12-20T15:15:51;96092.63;;;4.65;76.05
24302;BME280;12421;49.732;20.078;2023-12-20T15:25:54;96089.83;;;4.66;76.00
24302;BME280;12421;49.732;20.078;2023-12-20T15:35:58;96085.83;;;4.69;75.67
24302;BME280;12421;49.732;20.078;2023-12-20T15:46:01;96079.77;;;4.60;76.01
24302;BME280;12421;49.732;20.078;2023-12-20T15:56:08;96093.85;;;4.52;76.42
24302;BME280;12421;49.732;20.078;2023-12-20T16:06:11;96100.13;;;4.44;76.74
24302;BME280;12421;49.732;20.078;2023-12-20T16:16:15;96115.75;;;4.50;76.91
24302;BME280;12421;49.732;20.078;2023-12-20T16:26:18;96131.56;;;4.56;76.85
24302;BME280;12421;49.732;20.078;2023-12-20T16:36:21;96135.05;;;4.50;76.82
24302;BME280;12421;49.732;20.078;2023-12-20T16:46:25;96131.74;;;4.42;77.10
24302;BME280;12421;49.732;20.078;2023-12-20T16:56:29;96132.44;;;4.39;76.76
24302;BME280;12421;49.732;20.078;2023-12-20T17:06:34;96117.66;;;4.27;76.67
24302;BME280;12421;49.732;20.078;2023-12-20T17:16:37;96116.26;;;4.04;76.48
24302;BME280;12421;49.732;20.078;2023-12-20T17:26:40;96126.63;;;3.78;76.99
24302;BME280;12421;49.732;20.078;2023-12-20T17:36:44;96106.79;;;3.57;77.24
24302;BME280;12421;49.732;20.078;2023-12-20T17:46:50;96092.86;;;3.39;77.21
24302;BME280;12421;49.732;20.078;2023-12-20T17:56:53;96083.76;;;3.17;77.13
24302;BME280;12421;49.732;20.078;2023-12-20T18:06:58;96080.05;;;2.99;77.39
24302;BME280;12421;49.732;20.078;2023-12-20T18:17:01;96088.80;;;2.80;77.36
24302;BME280;12421;49.732;20.078;2023-12-20T18:27:05;96101.21;;;2.69;77.18
24302;BME280;12421;49.732;20.078;2023-12-20T18:37:09;96103.23;;;2.61;77.19
24302;BME280;12421;49.732;20.078;2023-12-20T18:47:14;96092.13;;;2.58;77.37
24302;BME280;12421;49.732;20.078;2023-12-20T18:57:17;96093.00;;;2.59;77.36
24302;BME280;12421;49.732;20.078;2023-12-20T19:07:21;96103.63;;;2.68;77.04
24302;BME280;12421;49.732;20.078;2023-12-20T19:17:25;96121.27;;;2.93;76.73
24302;BME280;12421;49.732;20.078;2023-12-20T19:27:28;96109.44;;;3.18;75.57
24302;BME280;12421;49.732;20.078;2023-12-20T19:37:32;96081.20;;;3.25;74.90
24302;BME280;12421;49.732;20.078;2023-12-20T19:47:36;96084.79;;;3.13;74.84
24302;BME280;12421;49.732;20.078;2023-12-20T19:57:39;96088.23;;;3.10;74.83
24302;BME280;12421;49.732;20.078;2023-12-20T20:07:43;96085.98;;;3.05;74.54
24302;BME280;12421;49.732;20.078;2023-12-20T20:17:46;96067.73;;;2.98;74.48
24302;BME280;12421;49.732;20.078;2023-12-20T20:27:51;96052.80;;;2.95;74.20
24302;BME280;12421;49.732;20.078;2023-12-20T20:37:55;96067.52;;;2.89;74.53
24302;BME280;12421;49.732;20.078;2023-12-20T20:47:58;96064.39;;;2.88;74.20
24302;BME280;12421;49.732;20.078;2023-12-20T20:58:18;96067.70;;;2.89;74.13
24302;BME280;12421;49.732;20.078;2023-12-20T21:08:22;96056.81;;;2.97;73.97
24302;BME280;12421;49.732;20.078;2023-12-20T21:18:25;96040.89;;;3.09;73.83
24302;BME280;12421;49.732;20.078;2023-12-20T21:28:31;96047.85;;;3.12;73.75
24302;BME280;12421;49.732;20.078;2023-12-20T21:38:36;96033.30;;;3.14;73.47
24302;BME280;12421;49.732;20.078;2023-12-20T21:48:39;96039.89;;;3.17;72.99
24302;BME280;12421;49.732;20.078;2023-12-20T21:58:42;96043.92;;;3.30;73.64
24302;BME280;12421;49.732;20.078;2023-12-20T22:08:50;96045.84;;;3.29;73.67
24302;BME280;12421;49.732;20.078;2023-12-20T22:18:56;96050.16;;;3.28;73.81
24302;BME280;12421;49.732;20.078;2023-12-20T22:29:00;96047.23;;;3.39;74.01
24302;BME280;12421;49.732;20.078;2023-12-20T22:39:03;96045.73;;;3.59;73.99
24302;BME280;12421;49.732;20.078;2023-12-20T22:49:06;96034.63;;;3.67;73.72
24302;BME280;12421;49.732;20.078;2023-12-20T22:59:10;96021.09;;;3.70;73.68
24302;BME280;12421;49.732;20.078;2023-12-20T23:09:16;96009.47;;;3.69;73.55
24302;BME280;12421;49.732;20.078;2023-12-20T23:19:20;96001.31;;;3.74;73.49
24302;BME280;12421;49.732;20.078;2023-12-20T23:29:23;96007.58;;;3.85;73.76
24302;BME280;12421;49.732;20.078;2023-12-20T23:39:26;96004.61;;;3.91;73.72
24302;BME280;12421;49.732;20.078;2023-12-20T23:49:30;96008.77;;;3.96;74.04
24302;BME280;12421;49.732;20.078;2023-12-20T23:59:33;96002.69;;;4.06;74.32
